sensor_id;sensor_type;location;lat;lon;timestamp;pressure;altitude;pressure_sealevel;temperature;humidity
70256;BME280;57669;52.624;-1.688;2023-02-18T00:01:08;101441.90;;;9.99;61.84
70256;BME280;57669;52.624;-1.688;2023-02-18T00:03:32;101443.64;;;10.67;60.88
70256;BME280;57669;52.624;-1.688;2023-02-18T00:05:58;101444.77;;;10.21;61.17
70256;BME280;57669;52.624;-1.688;2023-02-18T00:08:24;101435.00;;;9.78;62.73
70256;BME280;57669;52.624;-1.688;2023-02-18T00:10:49;101422.61;;;10.50;61.15
70256;BME280;57669;52.624;-1.688;2023-02-18T00:13:15;101417.68;;;10.11;60.79
70256;BME280;57669;52.624;-1.688;2023-02-18T00:15:41;101419.88;;;10.40;60.38
70256;BME280;57669;52.624;-1.688;2023-02-18T00:18:07;101428.86;;;9.92;62.27
70256;BME280;57669;52.624;-1.688;2023-02-18T00:20:33;101424.82;;;9.91;62.12
70256;BME280;57669;52.624;-1.688;2023-02-18T00:22:58;101418.69;;;9.90;61.80
70256;BME280;57669;52.624;-1.688;2023-02-18T00:25:24;101416.60;;;9.73;62.30
70256;BME280;57669;52.624;-1.688;2023-02-18T00:27:50;101422.13;;;9.73;62.32
70256;BME280;57669;52.624;-1.688;2023-02-18T00:30:16;101412.53;;;10.73;60.52
70256;BME280;57669;52.624;-1.688;2023-02-18T00:32:41;101407.38;;;9.90;62.76
70256;BME280;57669;52.624;-1.688;2023-02-18T00:35:07;101401.00;;;9.69;63.26
70256;BME280;57669;52.624;-1.688;2023-02-18T00:37:32;101403.31;;;9.75;62.87
70256;BME280;57669;52.624;-1.688;2023-02-18T00:39:58;101406.65;;;9.68;62.62
70256;BME280;57669;52.624;-1.688;2023-02-18T00:42:24;101401.77;;;9.04;63.91
70256;BME280;57669;52.624;-1.688;2023-02-18T00:44:50;101404.33;;;9.35;64.46
70256;BME280;57669;52.624;-1.688;2023-02-18T00:47:15;101396.38;;;8.99;64.66
70256;BME280;57669;52.624;-1.688;2023-02-18T00:49:41;101399.74;;;9.09;64.21
70256;BME280;57669;52.624;-1.688;2023-02-18T00:52:13;101395.06;;;9.28;63.65
70256;BME280;57669;52.624;-1.688;2023-02-18T00:54:33;101383.77;;;8.93;64.23
70256;BME280;57669;52.624;-1.688;2023-02-18T00:56:58;101382.75;;;9.43;62.98
70256;BME280;57669;52.624;-1.688;2023-02-18T00:59:24;101372.91;;;9.18;63.60
70256;BME280;57669;52.624;-1.688;2023-02-18T01:01:50;101372.80;;;9.13;62.97
70256;BME280;57669;52.624;-1.688;2023-02-18T01:04:16;101361.91;;;9.13;62.79
70256;BME280;57669;52.624;-1.688;2023-02-18T01:06:41;101350.89;;;9.35;63.70
70256;BME280;57669;52.624;-1.688;2023-02-18T01:09:07;101347.59;;;8.73;64.83
70256;BME280;57669;52.624;-1.688;2023-02-18T01:11:33;101354.18;;;8.95;63.06
70256;BME280;57669;52.624;-1.688;2023-02-18T01:13:59;101343.91;;;9.21;62.82
70256;BME280;57669;52.624;-1.688;2023-02-18T01:16:24;101343.62;;;8.83;62.45
70256;BME280;57669;52.624;-1.688;2023-02-18T01:18:50;101339.13;;;9.01;62.10
70256;BME280;57669;52.624;-1.688;2023-02-18T01:21:16;101337.25;;;8.91;62.25
70256;BME280;57669;52.624;-1.688;2023-02-18T01:23:42;101340.00;;;9.22;61.87
70256;BME280;57669;52.624;-1.688;2023-02-18T01:26:08;101337.77;;;9.19;60.83
70256;BME280;57669;52.624;-1.688;2023-02-18T01:28:33;101333.77;;;8.80;61.57
70256;BME280;57669;52.624;-1.688;2023-02-18T01:31:03;101337.28;;;8.93;61.69
70256;BME280;57669;52.624;-1.688;2023-02-18T01:33:24;101337.60;;;8.73;61.20
70256;BME280;57669;52.624;-1.688;2023-02-18T01:35:52;101343.78;;;8.68;61.71
70256;BME280;57669;52.624;-1.688;2023-02-18T01:38:16;101337.03;;;8.61;61.10
70256;BME280;57669;52.624;-1.688;2023-02-18T01:40:46;101346.79;;;8.98;60.32
70256;BME280;57669;52.624;-1.688;2023-02-18T01:43:09;101345.92;;;8.83;60.35
70256;BME280;57669;52.624;-1.688;2023-02-18T01:48:00;101359.78;;;8.93;61.07
70256;BME280;57669;52.624;-1.688;2023-02-18T01:52:50;101353.82;;;8.24;61.02
70256;BME280;57669;52.624;-1.688;2023-02-18T01:55:18;101344.99;;;9.27;60.02
70256;BME280;57669;52.624;-1.688;2023-02-18T01:57:42;101344.96;;;8.85;59.69
70256;BME280;57669;52.624;-1.688;2023-02-18T02:00:11;101339.57;;;8.85;59.53
70256;BME280;57669;52.624;-1.688;2023-02-18T02:02:36;101357.68;;;8.43;60.89
70256;BME280;57669;52.624;-1.688;2023-02-18T02:04:59;101340.85;;;8.30;61.24
70256;BME280;57669;52.624;-1.688;2023-02-18T02:07:26;101341.74;;;8.43;60.24
70256;BME280;57669;52.624;-1.688;2023-02-18T02:09:53;101348.54;;;9.07;58.88
70256;BME280;57669;52.624;-1.688;2023-02-18T02:12:31;101344.65;;;8.99;58.73
70256;BME280;57669;52.624;-1.688;2023-02-18T02:14:54;101342.65;;;8.40;61.10
70256;BME280;57669;52.624;-1.688;2023-02-18T02:17:14;101334.45;;;8.43;60.10
70256;BME280;57669;52.624;-1.688;2023-02-18T02:19:47;101334.39;;;9.21;58.35
70256;BME280;57669;52.624;-1.688;2023-02-18T02:22:16;101338.43;;;8.27;59.96
70256;BME280;57669;52.624;-1.688;2023-02-18T02:34:17;101300.70;;;8.04;60.23
70256;BME280;57669;52.624;-1.688;2023-02-18T02:36:39;101289.59;;;8.53;59.82
70256;BME280;57669;52.624;-1.688;2023-02-18T02:39:05;101283.39;;;8.37;60.57
70256;BME280;57669;52.624;-1.688;2023-02-18T02:41:38;101287.52;;;8.31;60.27
70256;BME280;57669;52.624;-1.688;2023-02-18T02:43:57;101271.08;;;8.35;59.42
70256;BME280;57669;52.624;-1.688;2023-02-18T02:46:20;101280.38;;;8.58;58.76
70256;BME280;57669;52.624;-1.688;2023-02-18T02:48:45;101279.24;;;8.67;58.51
70256;BME280;57669;52.624;-1.688;2023-02-18T02:51:10;101279.40;;;8.26;59.57
70256;BME280;57669;52.624;-1.688;2023-02-18T02:53:35;101276.38;;;8.86;58.11
70256;BME280;57669;52.624;-1.688;2023-02-18T02:55:59;101268.45;;;8.30;59.00
70256;BME280;57669;52.624;-1.688;2023-02-18T02:58:24;101276.12;;;8.20;59.10
70256;BME280;57669;52.624;-1.688;2023-02-18T03:01:00;101290.81;;;7.81;60.99
70256;BME280;57669;52.624;-1.688;2023-02-18T03:03:26;101279.08;;;8.10;59.87
70256;BME280;57669;52.624;-1.688;2023-02-18T03:05:55;101278.63;;;8.25;59.53
70256;BME280;57669;52.624;-1.688;2023-02-18T03:08:13;101269.50;;;8.27;59.39
70256;BME280;57669;52.624;-1.688;2023-02-18T03:10:44;101269.98;;;8.02;59.28
70256;BME280;57669;52.624;-1.688;2023-02-18T03:13:06;101256.92;;;8.24;59.35
70256;BME280;57669;52.624;-1.688;2023-02-18T03:15:30;101261.76;;;9.01;57.00
70256;BME280;57669;52.624;-1.688;2023-02-18T03:17:56;101256.24;;;8.97;57.10
70256;BME280;57669;52.624;-1.688;2023-02-18T03:20:22;101266.03;;;7.98;59.45
70256;BME280;57669;52.624;-1.688;2023-02-18T03:22:45;101260.97;;;8.01;60.63
70256;BME280;57669;52.624;-1.688;2023-02-18T03:25:08;101254.18;;;8.11;58.83
70256;BME280;57669;52.624;-1.688;2023-02-18T03:27:37;101250.38;;;8.11;58.78
70256;BME280;57669;52.624;-1.688;2023-02-18T03:30:06;101245.06;;;8.69;58.24
70256;BME280;57669;52.624;-1.688;2023-02-18T03:32:25;101242.80;;;8.04;59.50
70256;BME280;57669;52.624;-1.688;2023-02-18T03:34:53;101246.43;;;8.51;59.08
70256;BME280;57669;52.624;-1.688;2023-02-18T03:37:15;101231.17;;;8.27;60.07
70256;BME280;57669;52.624;-1.688;2023-02-18T03:39:45;101242.67;;;8.64;58.81
70256;BME280;57669;52.624;-1.688;2023-02-18T03:42:07;101237.72;;;8.25;59.12
70256;BME280;57669;52.624;-1.688;2023-02-18T03:44:33;101241.07;;;8.08;59.59
70256;BME280;57669;52.624;-1.688;2023-02-18T03:46:58;101237.02;;;8.04;61.05
70256;BME280;57669;52.624;-1.688;2023-02-18T03:49:24;101229.58;;;8.43;58.58
70256;BME280;57669;52.624;-1.688;2023-02-18T03:51:50;101222.78;;;8.73;57.90
70256;BME280;57669;52.624;-1.688;2023-02-18T03:54:25;101224.33;;;8.73;58.57
70256;BME280;57669;52.624;-1.688;2023-02-18T03:56:41;101215.81;;;9.15;56.62
70256;BME280;57669;52.624;-1.688;2023-02-18T03:59:07;101217.87;;;9.23;56.98
70256;BME280;57669;52.624;-1.688;2023-02-18T04:01:33;101226.25;;;8.77;58.10
70256;BME280;57669;52.624;-1.688;2023-02-18T04:03:58;101219.48;;;9.26;57.13
70256;BME280;57669;52.624;-1.688;2023-02-18T04:06:24;101229.94;;;8.66;58.65
70256;BME280;57669;52.624;-1.688;2023-02-18T04:08:49;101223.51;;;8.31;60.44
70256;BME280;57669;52.624;-1.688;2023-02-18T04:11:15;101225.31;;;8.23;60.95
70256;BME280;57669;52.624;-1.688;2023-02-18T04:13:40;101234.62;;;7.49;63.42
70256;BME280;57669;52.624;-1.688;2023-02-18T04:16:06;101231.46;;;7.79;63.10
70256;BME280;57669;52.624;-1.688;2023-02-18T04:18:32;101224.90;;;7.63;64.32
70256;BME280;57669;52.624;-1.688;2023-02-18T04:20:58;101230.10;;;7.87;63.61
70256;BME280;57669;52.624;-1.688;2023-02-18T04:23:23;101228.73;;;8.18;62.39
70256;BME280;57669;52.624;-1.688;2023-02-18T04:25:49;101238.22;;;7.31;65.25
70256;BME280;57669;52.624;-1.688;2023-02-18T04:28:16;101231.87;;;8.16;64.32
70256;BME280;57669;52.624;-1.688;2023-02-18T04:30:41;101228.96;;;7.66;66.29
70256;BME280;57669;52.624;-1.688;2023-02-18T04:33:06;101225.96;;;7.97;65.90
70256;BME280;57669;52.624;-1.688;2023-02-18T04:35:32;101234.99;;;7.60;65.65
70256;BME280;57669;52.624;-1.688;2023-02-18T04:37:58;101221.55;;;8.34;64.12
70256;BME280;57669;52.624;-1.688;2023-02-18T04:40:23;101223.15;;;8.30;64.44
70256;BME280;57669;52.624;-1.688;2023-02-18T04:42:49;101219.87;;;7.98;65.53
70256;BME280;57669;52.624;-1.688;2023-02-18T04:45:15;101216.98;;;8.16;65.20
70256;BME280;57669;52.624;-1.688;2023-02-18T04:47:41;101230.73;;;7.97;66.58
70256;BME280;57669;52.624;-1.688;2023-02-18T04:50:07;101229.42;;;8.36;65.24
70256;BME280;57669;52.624;-1.688;2023-02-18T04:52:32;101242.35;;;8.28;65.59
70256;BME280;57669;52.624;-1.688;2023-02-18T04:54:58;101237.36;;;7.81;66.94
70256;BME280;57669;52.624;-1.688;2023-02-18T04:57:23;101249.34;;;7.72;68.08
70256;BME280;57669;52.624;-1.688;2023-02-18T04:59:49;101241.37;;;7.75;68.44
70256;BME280;57669;52.624;-1.688;2023-02-18T05:02:15;101232.59;;;7.75;67.81
70256;BME280;57669;52.624;-1.688;2023-02-18T05:04:41;101233.20;;;7.97;67.32
70256;BME280;57669;52.624;-1.688;2023-02-18T05:07:07;101231.55;;;7.91;67.38
70256;BME280;57669;52.624;-1.688;2023-02-18T05:09:33;101234.59;;;8.50;65.02
70256;BME280;57669;52.624;-1.688;2023-02-18T05:11:58;101229.76;;;8.29;66.53
70256;BME280;57669;52.624;-1.688;2023-02-18T05:14:24;101232.52;;;8.15;67.02
70256;BME280;57669;52.624;-1.688;2023-02-18T05:16:50;101230.00;;;7.73;68.71
70256;BME280;57669;52.624;-1.688;2023-02-18T05:19:16;101227.99;;;7.90;68.56
70256;BME280;57669;52.624;-1.688;2023-02-18T05:21:41;101223.21;;;7.74;68.45
70256;BME280;57669;52.624;-1.688;2023-02-18T05:24:07;101205.46;;;7.84;68.87
70256;BME280;57669;52.624;-1.688;2023-02-18T05:26:33;101211.61;;;8.38;67.54
70256;BME280;57669;52.624;-1.688;2023-02-18T05:28:59;101203.41;;;7.46;68.76
70256;BME280;57669;52.624;-1.688;2023-02-18T05:31:24;101196.14;;;8.07;68.07
70256;BME280;57669;52.624;-1.688;2023-02-18T05:33:50;101191.28;;;8.13;68.15
70256;BME280;57669;52.624;-1.688;2023-02-18T05:36:16;101186.76;;;7.48;70.63
70256;BME280;57669;52.624;-1.688;2023-02-18T05:38:41;101192.01;;;7.26;71.55
70256;BME280;57669;52.624;-1.688;2023-02-18T05:41:07;101193.61;;;7.40;72.04
70256;BME280;57669;52.624;-1.688;2023-02-18T05:43:33;101192.06;;;7.52;71.28
70256;BME280;57669;52.624;-1.688;2023-02-18T05:45:59;101202.60;;;7.15;72.25
70256;BME280;57669;52.624;-1.688;2023-02-18T05:48:25;101184.31;;;7.58;70.60
70256;BME280;57669;52.624;-1.688;2023-02-18T05:50:53;101178.86;;;8.00;70.10
70256;BME280;57669;52.624;-1.688;2023-02-18T05:53:16;101189.26;;;7.54;71.49
70256;BME280;57669;52.624;-1.688;2023-02-18T05:55:42;101192.70;;;7.83;70.78
70256;BME280;57669;52.624;-1.688;2023-02-18T06:00:33;101198.52;;;7.26;73.39
70256;BME280;57669;52.624;-1.688;2023-02-18T06:02:59;101205.40;;;7.34;72.05
70256;BME280;57669;52.624;-1.688;2023-02-18T06:05:25;101187.58;;;7.44;72.10
70256;BME280;57669;52.624;-1.688;2023-02-18T06:07:51;101194.12;;;7.99;70.69
70256;BME280;57669;52.624;-1.688;2023-02-18T06:10:17;101188.34;;;7.37;71.68
70256;BME280;57669;52.624;-1.688;2023-02-18T06:12:42;101193.97;;;8.22;69.50
70256;BME280;57669;52.624;-1.688;2023-02-18T06:15:08;101191.00;;;7.76;71.21
70256;BME280;57669;52.624;-1.688;2023-02-18T06:17:34;101186.92;;;7.56;72.10
70256;BME280;57669;52.624;-1.688;2023-02-18T06:19:59;101205.28;;;7.67;71.75
70256;BME280;57669;52.624;-1.688;2023-02-18T06:22:25;101193.09;;;8.17;69.75
70256;BME280;57669;52.624;-1.688;2023-02-18T06:24:51;101197.04;;;7.89;70.47
70256;BME280;57669;52.624;-1.688;2023-02-18T06:27:17;101188.95;;;7.70;71.04
70256;BME280;57669;52.624;-1.688;2023-02-18T06:29:43;101184.24;;;7.93;70.95
70256;BME280;57669;52.624;-1.688;2023-02-18T06:32:08;101175.06;;;7.78;70.86
70256;BME280;57669;52.624;-1.688;2023-02-18T06:34:34;101186.07;;;7.10;72.62
70256;BME280;57669;52.624;-1.688;2023-02-18T06:37:00;101179.82;;;7.59;71.13
70256;BME280;57669;52.624;-1.688;2023-02-18T06:39:26;101175.26;;;7.69;71.06
70256;BME280;57669;52.624;-1.688;2023-02-18T06:41:51;101167.77;;;7.61;71.34
70256;BME280;57669;52.624;-1.688;2023-02-18T06:44:17;101169.41;;;7.22;73.09
70256;BME280;57669;52.624;-1.688;2023-02-18T06:46:43;101168.36;;;7.15;73.42
70256;BME280;57669;52.624;-1.688;2023-02-18T06:49:09;101169.32;;;7.73;71.24
70256;BME280;57669;52.624;-1.688;2023-02-18T06:51:35;101167.12;;;7.76;72.69
70256;BME280;57669;52.624;-1.688;2023-02-18T06:54:00;101170.52;;;7.42;72.18
70256;BME280;57669;52.624;-1.688;2023-02-18T06:56:26;101163.87;;;7.76;71.33
70256;BME280;57669;52.624;-1.688;2023-02-18T06:58:52;101172.75;;;7.16;74.55
70256;BME280;57669;52.624;-1.688;2023-02-18T07:01:18;101176.97;;;7.09;73.34
70256;BME280;57669;52.624;-1.688;2023-02-18T07:03:43;101194.27;;;7.31;73.34
70256;BME280;57669;52.624;-1.688;2023-02-18T07:06:09;101197.52;;;7.27;73.20
70256;BME280;57669;52.624;-1.688;2023-02-18T07:08:35;101206.73;;;7.26;73.80
70256;BME280;57669;52.624;-1.688;2023-02-18T07:11:01;101199.83;;;7.46;73.52
70256;BME280;57669;52.624;-1.688;2023-02-18T07:13:26;101208.35;;;7.55;72.81
70256;BME280;57669;52.624;-1.688;2023-02-18T07:15:52;101206.68;;;7.77;72.08
70256;BME280;57669;52.624;-1.688;2023-02-18T07:18:18;101195.08;;;7.92;71.66
70256;BME280;57669;52.624;-1.688;2023-02-18T07:20:44;101204.60;;;7.96;71.37
70256;BME280;57669;52.624;-1.688;2023-02-18T07:23:10;101209.14;;;7.83;71.18
70256;BME280;57669;52.624;-1.688;2023-02-18T07:25:40;101206.20;;;7.76;71.15
70256;BME280;57669;52.624;-1.688;2023-02-18T07:28:01;101214.41;;;7.93;71.09
70256;BME280;57669;52.624;-1.688;2023-02-18T07:30:27;101221.54;;;7.82;70.25
70256;BME280;57669;52.624;-1.688;2023-02-18T07:32:53;101222.90;;;8.11;69.47
70256;BME280;57669;52.624;-1.688;2023-02-18T07:35:18;101218.23;;;8.33;70.07
70256;BME280;57669;52.624;-1.688;2023-02-18T07:37:44;101219.27;;;9.00;67.33
70256;BME280;57669;52.624;-1.688;2023-02-18T07:40:12;101221.39;;;8.78;66.54
70256;BME280;57669;52.624;-1.688;2023-02-18T07:42:36;101224.18;;;8.91;66.89
70256;BME280;57669;52.624;-1.688;2023-02-18T07:45:01;101226.83;;;8.69;68.39
70256;BME280;57669;52.624;-1.688;2023-02-18T07:47:27;101228.09;;;9.40;66.30
70256;BME280;57669;52.624;-1.688;2023-02-18T07:49:54;101239.81;;;8.86;67.47
70256;BME280;57669;52.624;-1.688;2023-02-18T07:52:19;101227.50;;;8.84;67.86
70256;BME280;57669;52.624;-1.688;2023-02-18T07:54:44;101233.23;;;8.97;66.79
70256;BME280;57669;52.624;-1.688;2023-02-18T07:57:10;101234.86;;;8.94;67.50
70256;BME280;57669;52.624;-1.688;2023-02-18T07:59:36;101235.80;;;9.07;66.69
70256;BME280;57669;52.624;-1.688;2023-02-18T08:02:02;101238.07;;;9.02;67.34
70256;BME280;57669;52.624;-1.688;2023-02-18T08:04:34;101231.29;;;9.33;66.72
70256;BME280;57669;52.624;-1.688;2023-02-18T08:06:53;101237.69;;;8.86;67.96
70256;BME280;57669;52.624;-1.688;2023-02-18T08:09:19;101237.90;;;9.16;67.03
70256;BME280;57669;52.624;-1.688;2023-02-18T08:11:55;101235.30;;;8.45;68.83
70256;BME280;57669;52.624;-1.688;2023-02-18T08:14:10;101227.05;;;8.34;69.35
70256;BME280;57669;52.624;-1.688;2023-02-18T08:16:36;101229.54;;;8.79;68.10
70256;BME280;57669;52.624;-1.688;2023-02-18T08:19:02;101222.71;;;8.89;66.79
70256;BME280;57669;52.624;-1.688;2023-02-18T08:21:28;101227.89;;;8.70;66.90
70256;BME280;57669;52.624;-1.688;2023-02-18T08:23:53;101230.58;;;8.92;67.21
70256;BME280;57669;52.624;-1.688;2023-02-18T08:26:20;101233.07;;;9.34;66.31
70256;BME280;57669;52.624;-1.688;2023-02-18T08:28:46;101241.18;;;8.98;66.74
70256;BME280;57669;52.624;-1.688;2023-02-18T08:31:16;101243.54;;;8.99;66.27
70256;BME280;57669;52.624;-1.688;2023-02-18T08:33:36;101245.70;;;8.95;67.17
70256;BME280;57669;52.624;-1.688;2023-02-18T08:36:06;101241.60;;;9.24;65.57
70256;BME280;57669;52.624;-1.688;2023-02-18T08:38:28;101233.42;;;8.59;67.49
70256;BME280;57669;52.624;-1.688;2023-02-18T08:41:00;101235.49;;;9.04;66.70
70256;BME280;57669;52.624;-1.688;2023-02-18T08:43:19;101237.14;;;9.18;65.97
70256;BME280;57669;52.624;-1.688;2023-02-18T08:45:45;101244.10;;;8.88;66.51
70256;BME280;57669;52.624;-1.688;2023-02-18T08:48:12;101249.84;;;8.83;66.81
70256;BME280;57669;52.624;-1.688;2023-02-18T08:50:36;101251.89;;;9.08;66.22
70256;BME280;57669;52.624;-1.688;2023-02-18T08:53:04;101254.91;;;8.86;66.80
70256;BME280;57669;52.624;-1.688;2023-02-18T08:55:28;101256.98;;;8.73;67.07
70256;BME280;57669;52.624;-1.688;2023-02-18T08:57:55;101259.49;;;8.87;66.88
70256;BME280;57669;52.624;-1.688;2023-02-18T09:00:20;101253.52;;;8.50;68.09
70256;BME280;57669;52.624;-1.688;2023-02-18T09:02:45;101248.36;;;8.20;68.86
70256;BME280;57669;52.624;-1.688;2023-02-18T09:05:11;101236.04;;;8.66;68.05
70256;BME280;57669;52.624;-1.688;2023-02-18T09:07:36;101242.08;;;8.32;69.32
70256;BME280;57669;52.624;-1.688;2023-02-18T09:10:12;101238.98;;;8.65;67.49
70256;BME280;57669;52.624;-1.688;2023-02-18T09:12:28;101243.11;;;9.24;66.84
70256;BME280;57669;52.624;-1.688;2023-02-18T09:14:53;101248.07;;;8.67;67.20
70256;BME280;57669;52.624;-1.688;2023-02-18T09:17:19;101261.13;;;8.99;66.27
70256;BME280;57669;52.624;-1.688;2023-02-18T09:19:45;101254.79;;;8.99;66.42
70256;BME280;57669;52.624;-1.688;2023-02-18T09:22:11;101258.76;;;8.73;66.40
70256;BME280;57669;52.624;-1.688;2023-02-18T09:24:37;101255.39;;;9.07;65.77
70256;BME280;57669;52.624;-1.688;2023-02-18T09:27:02;101257.01;;;8.83;66.63
70256;BME280;57669;52.624;-1.688;2023-02-18T09:29:28;101251.13;;;9.08;66.09
70256;BME280;57669;52.624;-1.688;2023-02-18T09:31:54;101249.91;;;8.70;67.05
70256;BME280;57669;52.624;-1.688;2023-02-18T09:34:19;101253.10;;;9.18;65.80
70256;BME280;57669;52.624;-1.688;2023-02-18T09:36:46;101277.10;;;8.72;66.26
70256;BME280;57669;52.624;-1.688;2023-02-18T09:39:11;101268.41;;;8.64;65.26
70256;BME280;57669;52.624;-1.688;2023-02-18T09:41:40;101276.42;;;8.94;65.83
70256;BME280;57669;52.624;-1.688;2023-02-18T09:44:04;101268.21;;;8.99;64.69
70256;BME280;57669;52.624;-1.688;2023-02-18T09:46:31;101280.45;;;9.04;64.35
70256;BME280;57669;52.624;-1.688;2023-02-18T09:48:54;101281.27;;;8.82;64.00
70256;BME280;57669;52.624;-1.688;2023-02-18T09:51:20;101285.60;;;9.02;64.26
70256;BME280;57669;52.624;-1.688;2023-02-18T09:53:46;101282.41;;;9.16;62.76
70256;BME280;57669;52.624;-1.688;2023-02-18T09:56:13;101288.37;;;8.98;62.34
70256;BME280;57669;52.624;-1.688;2023-02-18T09:58:37;101270.83;;;9.51;61.22
70256;BME280;57669;52.624;-1.688;2023-02-18T10:01:05;101292.18;;;8.98;61.63
70256;BME280;57669;52.624;-1.688;2023-02-18T10:03:29;101288.31;;;9.18;60.75
70256;BME280;57669;52.624;-1.688;2023-02-18T10:05:57;101286.17;;;9.47;60.33
70256;BME280;57669;52.624;-1.688;2023-02-18T10:08:22;101305.42;;;9.15;60.12
70256;BME280;57669;52.624;-1.688;2023-02-18T10:10:46;101322.47;;;9.99;58.36
70256;BME280;57669;52.624;-1.688;2023-02-18T10:13:14;101314.25;;;9.52;59.12
70256;BME280;57669;52.624;-1.688;2023-02-18T10:15:37;101330.24;;;8.91;59.70
70256;BME280;57669;52.624;-1.688;2023-02-18T10:18:04;101329.01;;;9.83;58.13
70256;BME280;57669;52.624;-1.688;2023-02-18T10:20:31;101331.27;;;9.45;58.24
70256;BME280;57669;52.624;-1.688;2023-02-18T10:22:58;101333.01;;;9.47;58.13
70256;BME280;57669;52.624;-1.688;2023-02-18T10:25:22;101339.92;;;9.98;56.80
70256;BME280;57669;52.624;-1.688;2023-02-18T10:30:20;101341.15;;;9.90;55.99
70256;BME280;57669;52.624;-1.688;2023-02-18T10:32:39;101336.86;;;10.31;54.73
70256;BME280;57669;52.624;-1.688;2023-02-18T10:35:13;101341.09;;;10.73;53.72
70256;BME280;57669;52.624;-1.688;2023-02-18T10:37:44;101341.76;;;11.05;53.17
70256;BME280;57669;52.624;-1.688;2023-02-18T10:40:02;101344.19;;;10.16;54.65
70256;BME280;57669;52.624;-1.688;2023-02-18T10:42:30;101334.83;;;10.32;54.55
70256;BME280;57669;52.624;-1.688;2023-02-18T10:44:52;101343.52;;;10.39;54.05
70256;BME280;57669;52.624;-1.688;2023-02-18T10:47:18;101327.92;;;10.40;54.08
70256;BME280;57669;52.624;-1.688;2023-02-18T10:49:54;101333.70;;;10.58;53.68
70256;BME280;57669;52.624;-1.688;2023-02-18T10:52:04;101319.22;;;10.90;52.59
70256;BME280;57669;52.624;-1.688;2023-02-18T10:56:59;101317.52;;;10.88;52.95
70256;BME280;57669;52.624;-1.688;2023-02-18T10:59:22;101317.35;;;11.17;51.74
70256;BME280;57669;52.624;-1.688;2023-02-18T11:01:53;101327.47;;;10.81;52.54
70256;BME280;57669;52.624;-1.688;2023-02-18T11:04:14;101336.53;;;11.30;52.68
70256;BME280;57669;52.624;-1.688;2023-02-18T11:06:40;101332.53;;;10.64;53.89
70256;BME280;57669;52.624;-1.688;2023-02-18T11:09:03;101338.96;;;10.72;53.93
70256;BME280;57669;52.624;-1.688;2023-02-18T11:11:30;101344.60;;;11.10;52.25
70256;BME280;57669;52.624;-1.688;2023-02-18T11:13:56;101344.74;;;11.48;52.05
70256;BME280;57669;52.624;-1.688;2023-02-18T11:16:21;101352.02;;;10.82;53.65
70256;BME280;57669;52.624;-1.688;2023-02-18T11:21:21;101350.90;;;11.01;53.52
70256;BME280;57669;52.624;-1.688;2023-02-18T11:23:44;101344.94;;;11.48;53.25
70256;BME280;57669;52.624;-1.688;2023-02-18T11:26:05;101345.91;;;11.34;53.29
70256;BME280;57669;52.624;-1.688;2023-02-18T11:30:56;101349.19;;;10.36;56.27
70256;BME280;57669;52.624;-1.688;2023-02-18T11:33:23;101353.42;;;10.85;55.32
70256;BME280;57669;52.624;-1.688;2023-02-18T11:35:48;101354.13;;;10.62;55.14
70256;BME280;57669;52.624;-1.688;2023-02-18T11:38:19;101348.39;;;10.54;55.96
70256;BME280;57669;52.624;-1.688;2023-02-18T11:40:36;101360.90;;;10.84;55.49
70256;BME280;57669;52.624;-1.688;2023-02-18T11:43:05;101364.80;;;9.97;59.28
70256;BME280;57669;52.624;-1.688;2023-02-18T11:45:31;101366.65;;;9.54;61.06
70256;BME280;57669;52.624;-1.688;2023-02-18T11:47:59;101363.32;;;9.96;61.18
70256;BME280;57669;52.624;-1.688;2023-02-18T11:50:21;101367.80;;;10.55;60.05
70256;BME280;57669;52.624;-1.688;2023-02-18T11:52:46;101367.63;;;10.73;59.65
70256;BME280;57669;52.624;-1.688;2023-02-18T11:55:15;101378.97;;;10.59;60.61
70256;BME280;57669;52.624;-1.688;2023-02-18T11:57:38;101358.20;;;10.50;60.52
70256;BME280;57669;52.624;-1.688;2023-02-18T12:00:04;101358.52;;;10.95;58.75
70256;BME280;57669;52.624;-1.688;2023-02-18T12:02:32;101364.88;;;10.88;58.21
70256;BME280;57669;52.624;-1.688;2023-02-18T12:04:58;101364.00;;;10.81;57.88
70256;BME280;57669;52.624;-1.688;2023-02-18T12:07:22;101352.08;;;10.55;58.68
70256;BME280;57669;52.624;-1.688;2023-02-18T12:09:48;101360.99;;;10.13;58.14
70256;BME280;57669;52.624;-1.688;2023-02-18T12:12:13;101355.50;;;10.33;56.62
70256;BME280;57669;52.624;-1.688;2023-02-18T12:14:36;101357.28;;;10.69;56.22
70256;BME280;57669;52.624;-1.688;2023-02-18T12:17:13;101355.91;;;10.39;56.01
70256;BME280;57669;52.624;-1.688;2023-02-18T12:19:38;101351.86;;;10.68;55.94
70256;BME280;57669;52.624;-1.688;2023-02-18T12:21:59;101353.16;;;10.83;55.55
70256;BME280;57669;52.624;-1.688;2023-02-18T12:24:29;101351.63;;;10.59;55.37
70256;BME280;57669;52.624;-1.688;2023-02-18T12:26:51;101352.62;;;10.96;54.54
70256;BME280;57669;52.624;-1.688;2023-02-18T12:29:24;101358.80;;;10.62;54.82
70256;BME280;57669;52.624;-1.688;2023-02-18T12:31:46;101368.12;;;10.54;54.20
70256;BME280;57669;52.624;-1.688;2023-02-18T12:34:14;101351.92;;;10.66;53.66
70256;BME280;57669;52.624;-1.688;2023-02-18T12:36:35;101349.50;;;11.07;52.82
70256;BME280;57669;52.624;-1.688;2023-02-18T12:39:05;101342.85;;;9.94;54.11
70256;BME280;57669;52.624;-1.688;2023-02-18T12:43:53;101348.34;;;10.96;51.75
70256;BME280;57669;52.624;-1.688;2023-02-18T12:46:21;101356.59;;;10.24;52.81
70256;BME280;57669;52.624;-1.688;2023-02-18T12:48:48;101345.34;;;10.23;52.61
70256;BME280;57669;52.624;-1.688;2023-02-18T12:51:09;101363.46;;;10.35;52.51
70256;BME280;57669;52.624;-1.688;2023-02-18T12:56:05;101353.27;;;11.37;48.98
70256;BME280;57669;52.624;-1.688;2023-02-18T12:58:30;101350.50;;;11.75;48.54
70256;BME280;57669;52.624;-1.688;2023-02-18T13:05:40;101340.23;;;11.22;49.25
70256;BME280;57669;52.624;-1.688;2023-02-18T13:08:11;101334.65;;;11.02;49.64
70256;BME280;57669;52.624;-1.688;2023-02-18T13:12:56;101320.35;;;11.27;50.60
70256;BME280;57669;52.624;-1.688;2023-02-18T13:15:24;101331.37;;;10.86;50.86
70256;BME280;57669;52.624;-1.688;2023-02-18T13:17:45;101322.38;;;11.49;49.59